Time;durP1;ratioP1;P1;durP2;ratioP2;P2;SDS_P1;SDS_P2;PMS_P1;PMS_P2;Temp;Humidity;BMP_temperature;BMP_pressure;BME280_temperature;BME280_humidity;BME280_pressure;Samples;Min_cycle;Max_cycle;Signal;HPM_P1;HPM_P2
2022/05/12 00:01:33;;;;;;;8.43;5.62;;;;;;;15.33;66.64;100008.19;4484977;32;33564;-58
2022/05/12 00:04:01;;;;;;;10.18;6.30;;;;;;;15.35;66.52;100009.13;4484762;32;34010;-58
2022/05/12 00:06:28;;;;;;;9.95;6.60;;;;;;;15.40;66.36;100010.16;4483010;32;34639;-58
2022/05/12 00:08:55;;;;;;;10.40;6.43;;;;;;;15.40;66.59;99999.72;4484704;32;33053;-58
2022/05/12 00:11:23;;;;;;;9.48;5.80;;;;;;;15.36;66.91;100010.91;4483327;32;34106;-57
2022/05/12 00:13:51;;;;;;;9.25;6.10;;;;;;;15.32;67.18;100009.06;4471043;32;32186;-58
2022/05/12 00:16:18;;;;;;;10.38;6.95;;;;;;;15.19;67.83;100004.31;4484896;32;34028;-58
2022/05/12 00:18:46;;;;;;;11.77;5.78;;;;;;;15.48;66.63;99998.19;4484116;32;34412;-58
2022/05/12 00:21:13;;;;;;;7.78;6.03;;;;;;;15.22;67.60;100002.69;4484781;32;33907;-58
2022/05/12 00:23:41;;;;;;;8.88;6.37;;;;;;;15.07;68.20;100000.50;4484657;32;34452;-58
2022/05/12 00:26:08;;;;;;;9.60;6.00;;;;;;;15.01;68.43;100000.31;4483959;32;33759;-58
2022/05/12 00:28:36;;;;;;;10.13;6.60;;;;;;;14.66;69.90;100002.72;4485078;32;33418;-58
2022/05/12 00:31:03;;;;;;;10.80;6.95;;;;;;;14.51;70.93;99999.59;4483145;32;32493;-57
2022/05/12 00:33:31;;;;;;;9.50;6.65;;;;;;;14.36;72.37;100000.00;4485016;32;33927;-58
2022/05/12 00:35:58;;;;;;;10.13;6.57;;;;;;;14.56;71.06;99995.41;4485246;32;33746;-59
2022/05/12 00:38:26;;;;;;;12.05;6.50;;;;;;;14.83;70.38;100000.63;4485402;32;34053;-58
2022/05/12 00:40:54;;;;;;;10.75;6.40;;;;;;;15.29;68.31;99990.69;4469980;32;34911;-58
2022/05/12 00:43:38;;;;;;;11.68;6.25;;;;;;;15.22;68.32;99993.94;4483923;32;34476;-58
2022/05/12 00:46:11;;;;;;;10.52;6.75;;;;;;;15.31;67.59;99999.44;4480621;32;33903;-58
2022/05/12 00:48:39;;;;;;;9.60;6.35;;;;;;;15.61;66.86;99993.34;4482982;32;32995;-58
2022/05/12 00:51:09;;;;;;;10.77;5.93;;;;;;;15.91;65.27;99994.16;4470295;32;33337;-58
2022/05/12 00:53:37;;;;;;;8.70;6.15;;;;;;;15.40;67.70;99997.09;4457572;32;34398;-58
2022/05/12 00:56:09;;;;;;;11.20;6.30;;;;;;;15.06;68.85;99995.22;4452251;32;114950;-58
2022/05/12 00:58:37;;;;;;;10.73;6.60;;;;;;;15.03;69.58;99998.63;4483628;32;33106;-58
2022/05/12 01:01:07;;;;;;;11.05;6.68;;;;;;;15.41;67.49;99988.41;4469413;32;33611;-58
2022/05/12 01:03:38;;;;;;;8.98;5.85;;;;;;;15.08;68.56;99994.44;4485096;32;33800;-58
2022/05/12 01:06:08;;;;;;;10.13;6.60;;;;;;;14.88;69.99;99992.97;4484818;32;34109;-58
2022/05/12 01:08:36;;;;;;;9.43;6.22;;;;;;;15.62;66.99;99989.84;4479544;32;33696;-58
2022/05/12 01:11:09;;;;;;;11.48;6.47;;;;;;;14.29;71.93;100001.53;4469575;32;34509;-58
2022/05/12 01:13:37;;;;;;;10.25;6.85;;;;;;;15.32;68.17;99985.56;4471846;32;33731;-58
2022/05/12 01:16:05;;;;;;;8.40;6.43;;;;;;;15.07;68.94;99989.19;4483748;32;34601;-58
2022/05/12 01:18:38;;;;;;;11.60;6.82;;;;;;;15.25;68.10;99994.06;4484792;32;34404;-58
2022/05/12 01:21:08;;;;;;;12.18;7.53;;;;;;;15.05;69.10;99991.75;4484100;32;34496;-58
2022/05/12 01:23:38;;;;;;;13.13;6.72;;;;;;;14.58;71.27;99998.97;4484601;32;34687;-58
2022/05/12 01:26:09;;;;;;;9.27;6.47;;;;;;;14.49;72.00;100001.28;4484109;32;33163;-58
2022/05/12 01:28:37;;;;;;;11.23;6.62;;;;;;;15.01;69.69;99995.09;4452242;32;33332;-58
2022/05/12 01:31:05;;;;;;;11.98;6.82;;;;;;;14.83;70.46;99995.41;4467642;32;32310;-58
2022/05/12 01:33:33;;;;;;;10.02;6.15;;;;;;;15.27;68.60;99992.38;4477505;32;33994;-58
2022/05/12 01:36:01;;;;;;;12.82;6.57;;;;;;;14.93;70.22;99996.56;4474748;32;32772;-57
2022/05/12 01:38:29;;;;;;;12.55;7.12;;;;;;;14.82;70.91;99987.56;4481221;32;32078;-58
2022/05/12 01:40:56;;;;;;;11.68;6.87;;;;;;;15.09;69.36;99992.72;4479535;32;33996;-58
2022/05/12 01:43:24;;;;;;;11.02;7.15;;;;;;;14.58;71.05;99992.87;4477614;32;34622;-58
2022/05/12 01:45:51;;;;;;;8.52;6.85;;;;;;;15.32;68.36;99988.19;4481721;32;33739;-58
2022/05/12 01:48:20;;;;;;;10.20;6.57;;;;;;;15.69;67.10;99983.97;4478383;32;33414;-58
2022/05/12 01:50:47;;;;;;;10.30;6.22;;;;;;;15.85;66.37;99988.78;4466462;32;33575;-58
2022/05/12 01:53:16;;;;;;;10.20;6.22;;;;;;;15.92;66.12;99985.50;4468729;32;33788;-58
2022/05/12 01:55:43;;;;;;;12.10;7.30;;;;;;;15.84;66.58;99992.25;4478648;32;34393;-58
2022/05/12 01:58:11;;;;;;;9.38;6.30;;;;;;;15.24;69.03;99987.03;4477911;32;33496;-58
2022/05/12 02:00:39;;;;;;;8.35;6.22;;;;;;;15.80;66.02;99985.19;4466987;32;33459;-58
2022/05/12 02:03:06;;;;;;;9.95;6.72;;;;;;;16.07;65.76;99978.87;4471210;26;33810;-82
2022/05/12 02:05:35;;;;;;;10.35;7.18;;;;;;;15.67;66.93;99978.69;4430650;32;33498;-83
2022/05/12 02:08:05;;;;;;;8.63;6.72;;;;;;;14.94;69.75;99977.50;4452520;26;33412;-63
2022/05/12 02:10:38;;;;;;;11.60;7.40;;;;;;;14.90;70.33;99973.91;4456163;32;33786;-63
2022/05/12 02:13:07;;;;;;;8.95;6.60;;;;;;;14.83;69.96;99963.25;4466847;32;33946;-63
2022/05/12 02:15:36;;;;;;;11.77;6.37;;;;;;;14.86;69.65;99968.56;4465833;32;33723;-64
2022/05/12 02:18:04;;;;;;;12.20;7.32;;;;;;;15.49;68.12;99966.03;4468930;32;33921;-63
2022/05/12 02:20:32;;;;;;;9.25;6.47;;;;;;;14.99;69.42;99964.56;4469844;32;33880;-63
2022/05/12 02:23:00;;;;;;;9.60;7.25;;;;;;;15.83;66.40;99964.34;4449651;32;33916;-63
2022/05/12 02:25:27;;;;;;;9.27;6.20;;;;;;;16.01;65.66;99968.28;4466814;32;33660;-63
2022/05/12 02:27:55;;;;;;;9.38;6.70;;;;;;;16.67;62.97;99962.91;4466535;32;33468;-63
2022/05/12 02:30:29;;;;;;;10.90;7.30;;;;;;;15.57;67.32;99970.56;4470798;32;34393;-64
2022/05/12 02:32:57;;;;;;;9.07;6.65;;;;;;;15.48;67.49;99966.88;4470177;32;33929;-63
2022/05/12 02:35:26;;;;;;;9.25;7.12;;;;;;;15.94;65.38;99969.87;4448981;32;33282;-64
2022/05/12 02:37:53;;;;;;;9.30;7.07;;;;;;;15.37;67.80;99973.50;4467688;32;33208;-64
2022/05/12 02:40:23;;;;;;;10.63;6.40;;;;;;;15.91;65.77;99973.25;4467473;32;34562;-64
2022/05/12 02:42:51;;;;;;;11.40;7.07;;;;;;;16.03;64.90;99971.81;4468914;32;34075;-63
2022/05/12 02:45:18;;;;;;;10.35;6.97;;;;;;;15.99;65.20;99980.41;4451167;32;34872;-63
2022/05/12 02:47:46;;;;;;;10.73;7.10;;;;;;;15.45;66.86;99971.13;4463777;32;33603;-63
2022/05/12 02:50:16;;;;;;;9.65;6.97;;;;;;;14.80;70.05;99973.59;4467840;32;34075;-62
2022/05/12 02:52:43;;;;;;;12.35;8.05;;;;;;;14.72;70.49;99974.25;4468523;32;33577;-63
2022/05/12 02:55:11;;;;;;;12.48;7.50;;;;;;;14.44;71.89;99974.16;4463604;32;34319;-63
2022/05/12 02:57:40;;;;;;;10.48;7.12;;;;;;;14.15;73.27;99981.91;4451034;32;31451;-63
2022/05/12 03:00:10;;;;;;;12.82;7.82;;;;;;;14.46;71.84;99980.31;4445363;32;33821;-63
2022/05/12 03:02:38;;;;;;;14.60;7.70;;;;;;;13.89;74.50;99983.66;4465724;32;34021;-63
2022/05/12 03:05:06;;;;;;;12.18;7.95;;;;;;;13.81;74.77;99987.69;4460718;32;34834;-63
2022/05/12 03:07:34;;;;;;;11.23;7.65;;;;;;;13.71;75.59;99989.09;4461762;32;33207;-63
2022/05/12 03:10:02;;;;;;;11.38;7.43;;;;;;;13.39;76.98;99991.44;4458605;32;33498;-64
2022/05/12 03:12:30;;;;;;;10.38;8.25;;;;;;;13.52;77.06;99988.47;4459596;32;33799;-63
2022/05/12 03:14:57;;;;;;;12.32;8.57;;;;;;;13.42;77.22;99994.16;4463116;32;34445;-63
2022/05/12 03:17:25;;;;;;;15.43;8.85;;;;;;;13.16;78.43;100004.44;4458796;32;31823;-63
2022/05/12 03:19:52;;;;;;;14.32;8.10;;;;;;;13.16;78.78;100004.44;4464074;32;33859;-63
2022/05/12 03:22:20;;;;;;;11.95;8.27;;;;;;;13.61;76.90;100002.63;4464297;32;34755;-63
2022/05/12 03:24:48;;;;;;;12.05;7.32;;;;;;;13.40;77.60;100003.63;4464098;32;34793;-63
2022/05/12 03:27:15;;;;;;;11.52;7.75;;;;;;;13.47;77.48;100000.41;4466144;32;33497;-63
2022/05/12 03:29:43;;;;;;;11.27;7.80;;;;;;;13.71;76.29;100000.41;4462320;32;34141;-63
2022/05/12 03:32:12;;;;;;;12.30;7.97;;;;;;;13.50;77.50;99992.72;4461446;32;34961;-63
2022/05/12 03:34:40;;;;;;;11.15;7.62;;;;;;;13.62;76.89;99999.19;4461220;32;34005;-63
2022/05/12 03:37:08;;;;;;;12.50;7.57;;;;;;;13.64;76.70;99993.22;4461386;32;33197;-63
2022/05/12 03:39:43;;;;;;;12.45;8.05;;;;;;;13.61;76.90;99994.81;4452279;32;33834;-64
2022/05/12 03:42:12;;;;;;;12.95;8.27;;;;;;;13.52;77.27;99998.88;4436609;32;33524;-63
2022/05/12 03:44:46;;;;;;;13.98;8.43;;;;;;;13.44;77.62;99995.09;4464911;32;34043;-63
2022/05/12 03:47:15;;;;;;;14.50;8.30;;;;;;;13.35;78.44;99999.97;4457878;32;34135;-63
2022/05/12 03:49:43;;;;;;;12.40;8.02;;;;;;;13.89;76.32;100005.38;4466407;32;34065;-63
2022/05/12 03:52:10;;;;;;;11.95;8.05;;;;;;;14.27;74.32;99999.69;4460516;32;33579;-63
2022/05/12 03:54:39;;;;;;;10.93;8.13;;;;;;;14.15;74.48;100005.38;4462284;32;33874;-63
2022/05/12 03:57:07;;;;;;;12.68;7.95;;;;;;;14.31;74.19;100007.66;4450094;32;33443;-63
2022/05/12 03:59:38;;;;;;;12.52;8.98;;;;;;;15.13;70.37;100000.66;4455203;32;33695;-63
2022/05/12 04:02:06;;;;;;;13.35;7.60;;;;;;;15.57;68.87;99999.28;4463860;32;33565;-63
2022/05/12 04:04:34;;;;;;;16.55;8.13;;;;;;;15.69;68.00;100004.88;4464367;32;34319;-63
2022/05/12 04:07:02;;;;;;;12.50;8.38;;;;;;;14.59;72.88;100012.91;4458966;32;34252;-63
2022/05/12 04:09:30;;;;;;;12.15;7.68;;;;;;;14.28;73.81;100010.16;4461079;32;33846;-63
2022/05/12 04:11:57;;;;;;;12.43;7.72;;;;;;;14.95;71.14;100010.56;4463837;32;34034;-63
2022/05/12 04:14:25;;;;;;;12.82;7.90;;;;;;;15.07;71.59;100005.72;4464633;32;34593;-63
2022/05/12 04:16:52;;;;;;;13.60;8.07;;;;;;;14.38;74.45;100011.34;4467840;32;33344;-63
2022/05/12 04:19:21;;;;;;;14.82;8.25;;;;;;;14.51;73.99;100016.13;4460938;32;34658;-63
2022/05/12 04:21:49;;;;;;;12.18;7.82;;;;;;;14.49;74.18;100023.00;4465819;32;33604;-63
2022/05/12 04:24:17;;;;;;;13.85;8.68;;;;;;;14.59;73.25;100026.81;4449080;32;34556;-63
2022/05/12 04:26:46;;;;;;;12.15;8.35;;;;;;;14.46;74.01;100024.63;4465740;32;33731;-63
2022/05/12 04:29:14;;;;;;;15.35;7.85;;;;;;;14.57;73.63;100023.28;4453615;32;32189;-63
2022/05/12 04:31:42;;;;;;;13.10;8.07;;;;;;;14.61;73.88;100030.37;4449350;32;33469;-63
2022/05/12 04:36:55;;;;;;;13.38;7.85;;;;;;;14.89;72.95;100033.84;4465296;32;33471;-64
2022/05/12 04:39:23;;;;;;;11.82;8.05;;;;;;;14.84;73.68;100030.22;4467387;32;33856;-63
2022/05/12 04:41:50;;;;;;;10.27;7.45;;;;;;;14.84;73.19;100043.25;4464625;32;34907;-63
2022/05/12 04:44:19;;;;;;;10.85;7.90;;;;;;;15.00;72.78;100040.28;4460724;32;33958;-64
2022/05/12 04:46:47;;;;;;;13.55;7.68;;;;;;;15.29;71.57;100042.88;4459095;32;33275;-63
2022/05/12 04:49:15;;;;;;;14.55;8.05;;;;;;;15.34;71.71;100046.53;4465842;32;33962;-63
2022/05/12 04:51:42;;;;;;;12.85;7.65;;;;;;;15.73;70.15;100045.91;4455008;32;34372;-63
2022/05/12 04:54:10;;;;;;;12.65;7.62;;;;;;;15.73;70.23;100045.91;4466213;32;34467;-63
2022/05/12 04:56:39;;;;;;;10.75;7.47;;;;;;;15.73;70.32;100045.91;4451725;32;33462;-63
2022/05/12 04:59:08;;;;;;;12.10;7.40;;;;;;;15.85;69.94;100046.25;4465483;32;33745;-63
2022/05/12 05:01:36;;;;;;;12.55;7.45;;;;;;;16.08;69.49;100049.47;4452176;32;34412;-63
2022/05/12 05:04:04;;;;;;;13.15;7.90;;;;;;;16.52;67.65;100051.47;4471421;32;33834;-63
2022/05/12 05:06:32;;;;;;;10.30;6.97;;;;;;;16.21;69.23;100050.69;4462447;32;33280;-64
2022/05/12 05:09:00;;;;;;;10.82;7.80;;;;;;;16.47;68.27;100053.06;4464888;32;33791;-63
2022/05/12 05:11:27;;;;;;;13.30;8.43;;;;;;;16.60;67.86;100049.03;4462503;32;33353;-64
2022/05/12 05:13:55;;;;;;;10.70;7.18;;;;;;;16.54;69.37;100049.78;4462750;32;34777;-64
2022/05/12 05:16:22;;;;;;;11.38;8.23;;;;;;;17.63;65.72;100052.22;4462394;32;33612;-64
2022/05/12 05:18:50;;;;;;;12.98;7.90;;;;;;;17.43;65.88;100046.59;4452255;32;32374;-64
2022/05/12 05:21:17;;;;;;;10.30;7.15;;;;;;;17.50;65.10;100045.00;4450570;32;32568;-63
2022/05/12 05:23:45;;;;;;;10.90;7.07;;;;;;;17.91;63.64;100044.97;4473460;32;34471;-64
2022/05/12 05:26:13;;;;;;;11.20;7.93;;;;;;;17.91;63.18;100044.09;4465580;32;33303;-64
2022/05/12 05:28:40;;;;;;;10.98;8.27;;;;;;;17.49;65.41;100046.72;4470297;32;33726;-64
2022/05/12 05:31:08;;;;;;;13.30;8.57;;;;;;;17.51;64.99;100054.59;4465698;32;34636;-64
2022/05/12 05:33:36;;;;;;;14.90;7.37;;;;;;;18.32;62.48;100052.69;4464178;32;33901;-64
2022/05/12 05:36:03;;;;;;;12.43;6.80;;;;;;;18.62;61.12;100052.31;4461609;32;33258;-63
2022/05/12 05:38:31;;;;;;;8.48;6.30;;;;;;;19.74;55.65;100055.69;4470963;32;33463;-64
2022/05/12 05:40:59;;;;;;;12.00;6.78;;;;;;;19.89;56.36;100048.81;4456208;32;34017;-64
2022/05/12 05:43:26;;;;;;;11.60;7.25;;;;;;;19.72;55.69;100041.66;4451338;32;34561;-64
2022/05/12 05:45:54;;;;;;;11.75;7.28;;;;;;;19.73;55.55;100046.03;4465628;32;32363;-64
2022/05/12 05:48:22;;;;;;;11.43;7.30;;;;;;;20.35;53.92;100054.53;4468265;32;32344;-64
2022/05/12 05:53:38;;;;;;;9.25;7.03;;;;;;;20.41;54.54;100044.94;4462302;32;33705;-64
2022/05/12 05:56:09;;;;;;;13.60;7.15;;;;;;;20.20;54.88;100048.28;4462281;32;33798;-64
2022/05/12 05:58:39;;;;;;;12.50;7.20;;;;;;;20.82;53.24;100046.16;4461412;32;33978;-64
2022/05/12 06:01:07;;;;;;;10.65;6.95;;;;;;;20.62;53.45;100044.28;4451064;32;33796;-63
2022/05/12 06:03:35;;;;;;;12.25;7.82;;;;;;;20.09;55.26;100055.19;4467886;32;34846;-63
2022/05/12 06:06:03;;;;;;;14.20;7.53;;;;;;;19.31;57.66;100055.09;4467157;32;33350;-63
2022/05/12 06:08:30;;;;;;;11.30;7.47;;;;;;;19.18;59.00;100047.91;4441133;32;34593;-63
2022/05/12 06:11:03;;;;;;;13.05;7.22;;;;;;;19.13;59.44;100058.38;4459905;32;33842;-62
2022/05/12 06:13:33;;;;;;;10.57;7.40;;;;;;;19.30;59.23;100053.34;4439417;32;33510;-62
2022/05/12 06:16:01;;;;;;;10.60;5.82;;;;;;;19.45;58.16;100053.56;4455418;32;33457;-63
2022/05/12 06:18:29;;;;;;;9.55;6.07;;;;;;;19.54;56.44;100054.53;4448538;32;33858;-63
2022/05/12 06:20:56;;;;;;;11.60;5.93;;;;;;;19.65;57.24;100050.28;4452090;32;33976;-63
2022/05/12 06:23:24;;;;;;;9.25;5.90;;;;;;;19.87;56.45;100051.44;4454196;32;34614;-63
2022/05/12 06:25:52;;;;;;;9.57;6.18;;;;;;;19.96;56.80;100045.41;4453852;32;33636;-63
2022/05/12 06:28:19;;;;;;;14.35;6.28;;;;;;;19.91;55.48;100049.72;4437837;32;33810;-62
2022/05/12 06:30:47;;;;;;;9.75;6.20;;;;;;;20.17;55.50;100044.75;4455276;32;34726;-62
2022/05/12 06:33:18;;;;;;;10.75;6.80;;;;;;;20.20;55.77;100061.44;4458931;32;33766;-62
2022/05/12 06:35:47;;;;;;;12.95;7.18;;;;;;;20.49;56.09;100052.03;4454604;32;34180;-62
2022/05/12 06:38:15;;;;;;;11.07;6.47;;;;;;;20.30;55.55;100056.25;4457027;32;33648;-62
2022/05/12 06:40:42;;;;;;;8.52;5.95;;;;;;;20.28;55.43;100053.63;4448220;32;33934;-62
2022/05/12 06:43:11;;;;;;;8.98;6.47;;;;;;;20.46;56.90;100057.28;4458477;32;33888;-62
2022/05/12 06:45:40;;;;;;;9.05;6.93;;;;;;;20.46;55.29;100063.41;4459300;32;33406;-63
2022/05/12 06:48:08;;;;;;;11.88;6.87;;;;;;;20.49;53.99;100058.16;4456844;32;33632;-63
2022/05/12 06:50:35;;;;;;;11.73;7.40;;;;;;;20.40;54.25;100064.25;4454313;32;34633;-62
2022/05/12 06:53:03;;;;;;;11.63;6.90;;;;;;;20.59;54.23;100065.31;4452510;32;34647;-62
2022/05/12 06:55:31;;;;;;;10.60;7.15;;;;;;;20.75;54.13;100068.09;4464627;32;35668;-62
2022/05/12 06:57:59;;;;;;;11.93;6.80;;;;;;;20.91;52.56;100062.03;4445297;32;33898;-63
2022/05/12 07:00:26;;;;;;;8.45;6.00;;;;;;;21.13;54.37;100060.44;4448876;32;34281;-63
2022/05/12 07:02:54;;;;;;;10.82;6.85;;;;;;;21.15;52.72;100048.16;4445471;32;34784;-63
2022/05/12 07:05:26;;;;;;;11.07;6.35;;;;;;;21.27;52.85;100052.59;4464759;32;33367;-63
2022/05/12 07:07:54;;;;;;;9.52;6.47;;;;;;;21.56;52.79;100050.13;4457469;32;33306;-63
2022/05/12 07:10:24;;;;;;;12.55;6.60;;;;;;;21.97;50.88;100049.38;4457545;32;33940;-63
2022/05/12 07:12:52;;;;;;;9.68;6.20;;;;;;;22.05;51.04;100041.47;4454448;32;34191;-63
2022/05/12 07:15:25;;;;;;;9.88;5.87;;;;;;;22.04;52.22;100052.94;4435009;32;33457;-63
2022/05/12 07:17:54;;;;;;;10.15;6.43;;;;;;;22.05;51.28;100052.03;4459402;32;34542;-63
2022/05/12 07:28:43;;;;;;;12.20;6.07;;;;;;;22.56;49.39;100050.37;4447956;32;34444;-63
2022/05/12 07:31:11;;;;;;;10.35;6.80;;;;;;;22.80;49.69;100050.34;4454648;32;34595;-63
2022/05/12 07:33:43;;;;;;;9.38;5.78;;;;;;;22.68;47.89;100053.87;4429436;32;34317;-63
2022/05/12 07:36:18;;;;;;;12.10;5.50;;;;;;;23.16;47.38;100046.81;4434547;32;33137;-62
2022/05/12 07:38:45;;;;;;;14.00;6.25;;;;;;;23.71;48.69;100045.69;4445209;32;33667;-63
2022/05/12 07:41:14;;;;;;;11.10;6.30;;;;;;;23.38;46.23;100046.72;4453887;32;34803;-63
2022/05/12 07:43:44;;;;;;;8.02;6.25;;;;;;;23.42;45.94;100045.81;4457018;32;33437;-63
2022/05/12 07:46:13;;;;;;;10.77;5.95;;;;;;;23.36;46.60;100039.66;4446291;32;33434;-62
2022/05/12 07:48:42;;;;;;;10.93;5.93;;;;;;;23.60;46.46;100036.94;4462725;32;33679;-62
2022/05/12 07:51:10;;;;;;;8.52;5.30;;;;;;;24.02;48.12;100041.13;4442173;32;34553;-62
2022/05/12 07:53:38;;;;;;;10.00;5.57;;;;;;;24.10;46.45;100033.16;4445130;32;33755;-63
2022/05/12 07:56:07;;;;;;;11.25;6.15;;;;;;;23.98;45.08;100038.53;4462492;32;33478;-63
2022/05/12 07:58:34;;;;;;;9.93;5.85;;;;;;;24.08;45.06;100041.09;4445754;32;33435;-63
2022/05/12 08:01:02;;;;;;;11.23;6.03;;;;;;;24.09;45.76;100042.88;4444189;32;33684;-63
2022/05/12 08:03:30;;;;;;;11.27;5.82;;;;;;;24.22;44.27;100042.75;4455310;32;33728;-63
2022/05/12 08:05:59;;;;;;;14.43;5.85;;;;;;;24.81;45.72;100044.06;4458764;32;33293;-63
2022/05/12 08:08:28;;;;;;;13.93;6.10;;;;;;;25.09;44.43;100042.03;4456005;32;33701;-63
2022/05/12 08:10:56;;;;;;;10.32;5.62;;;;;;;25.28;44.67;100045.41;4463130;32;33830;-63
2022/05/12 08:13:25;;;;;;;14.45;6.57;;;;;;;25.37;43.09;100043.53;4468257;32;33461;-63
2022/05/12 08:15:53;;;;;;;13.95;5.53;;;;;;;25.16;42.99;100045.47;4458968;32;33171;-63
2022/05/12 08:18:23;;;;;;;9.57;5.72;;;;;;;25.24;43.45;100048.06;4478804;32;33837;-63
2022/05/12 08:20:51;;;;;;;14.57;6.22;;;;;;;25.22;41.78;100048.09;4465666;32;33952;-63
2022/05/12 08:23:19;;;;;;;11.68;5.50;;;;;;;25.23;43.93;100041.91;4468922;32;33643;-63
2022/05/12 08:25:48;;;;;;;13.62;6.32;;;;;;;25.38;41.46;100039.97;4461911;32;33103;-63
2022/05/12 08:28:19;;;;;;;10.73;6.40;;;;;;;25.40;41.94;100046.12;4470103;32;32534;-63
2022/05/12 08:30:48;;;;;;;14.07;5.35;;;;;;;25.50;42.36;100034.53;4467846;32;32985;-63
2022/05/12 08:33:17;;;;;;;9.45;5.80;;;;;;;26.42;41.85;100043.81;4470231;32;34066;-63
2022/05/12 08:35:45;;;;;;;13.40;6.18;;;;;;;26.24;40.59;100038.81;4469218;32;33567;-63
2022/05/12 08:38:14;;;;;;;13.90;5.50;;;;;;;25.81;40.71;100044.72;4461191;32;34033;-63
2022/05/12 08:41:04;;;;;;;9.70;5.50;;;;;;;25.93;41.19;100044.56;4465085;32;34413;-63
2022/05/12 08:43:41;;;;;;;11.68;5.68;;;;;;;26.28;41.45;100048.47;4464278;32;33862;-63
2022/05/12 08:46:12;;;;;;;9.77;5.43;;;;;;;26.80;39.31;100039.66;4466842;32;31997;-63
2022/05/12 08:48:42;;;;;;;10.50;5.32;;;;;;;27.22;40.80;100046.87;4456387;32;33910;-63
2022/05/12 08:51:17;;;;;;;9.77;5.87;;;;;;;26.88;40.35;100048.38;4470855;32;34369;-63
2022/05/12 08:53:50;;;;;;;10.20;5.40;;;;;;;27.33;39.49;100044.88;4470732;32;33941;-63
2022/05/12 08:56:21;;;;;;;8.02;5.00;;;;;;;27.82;38.30;100046.50;4452476;32;33910;-63
2022/05/12 08:58:51;;;;;;;11.12;6.20;;;;;;;27.11;40.67;100048.84;4470762;32;32881;-63
2022/05/12 09:01:36;;;;;;;10.43;5.43;;;;;;;26.82;39.30;100037.84;4455202;32;34494;-63
2022/05/12 09:04:42;;;;;;;12.13;5.47;;;;;;;27.33;40.52;100049.34;4474652;32;33788;-63
2022/05/12 09:07:14;;;;;;;7.37;5.03;;;;;;;27.59;39.54;100041.69;4452955;32;34063;-63
2022/05/12 09:10:06;;;;;;;9.25;5.50;;;;;;;26.75;39.18;100044.16;4449873;32;33608;-63
2022/05/12 09:13:01;;;;;;;9.38;5.12;;;;;;;26.95;39.45;100045.62;4467448;32;33768;-63
2022/05/12 09:15:30;;;;;;;10.23;5.65;;;;;;;27.61;39.70;100045.19;4443268;32;33796;-63
2022/05/12 09:17:59;;;;;;;9.57;5.32;;;;;;;27.32;39.90;100047.59;4468257;32;33465;-63
2022/05/12 09:20:32;;;;;;;9.95;5.78;;;;;;;27.41;39.74;100042.06;4470187;32;33807;-63
2022/05/12 09:23:01;;;;;;;9.02;5.35;;;;;;;27.48;39.24;100043.69;4454467;32;33621;-63
2022/05/12 09:25:44;;;;;;;8.48;4.93;;;;;;;27.62;38.58;100046.97;4463745;32;34150;-63
2022/05/12 09:28:24;;;;;;;;;;;;;;;27.77;38.18;100055.50;4449645;32;32938;-63
2022/05/12 09:30:52;;;;;;;11.38;5.20;;;;;;;28.14;37.51;100049.38;4472528;32;34689;-63
2022/05/12 09:33:26;;;;;;;9.52;5.57;;;;;;;28.42;39.13;100049.59;4453134;32;34703;-63
2022/05/12 09:35:56;;;;;;;11.25;5.35;;;;;;;28.81;37.00;100055.72;4456346;32;33867;-62
2022/05/12 09:38:26;;;;;;;11.55;5.97;;;;;;;28.87;36.30;100061.81;4467434;32;33148;-63
2022/05/12 09:40:54;;;;;;;9.20;4.80;;;;;;;28.85;35.06;100053.00;4465664;32;33687;-63
2022/05/12 09:43:26;;;;;;;9.90;5.15;;;;;;;28.15;36.81;100052.00;4467879;32;33654;-63
2022/05/12 09:46:04;;;;;;;10.98;5.55;;;;;;;28.75;38.13;100052.34;4471514;32;34452;-63
2022/05/12 09:48:36;;;;;;;11.23;5.75;;;;;;;29.06;36.98;100047.06;4473023;32;33174;-63
2022/05/12 09:51:33;;;;;;;8.40;5.10;;;;;;;28.77;35.89;100050.53;4474546;32;32918;-63
2022/05/12 09:54:23;;;;;;;12.43;4.87;;;;;;;29.15;35.48;100041.53;4456697;32;34600;-64
2022/05/12 09:57:11;;;;;;;12.00;5.10;;;;;;;28.71;35.25;100043.56;4463835;32;34610;-63
2022/05/12 09:59:41;;;;;;;10.98;5.25;;;;;;;29.05;35.67;100034.66;4471702;32;33637;-63
2022/05/12 10:07:53;;;;;;;10.52;5.62;;;;;;;28.95;36.17;100033.16;4466913;32;33894;-63
2022/05/12 10:08:24;;;;;;;8.07;5.07;;;;;;;28.56;37.08;100035.97;4463924;32;33645;-63
2022/05/12 10:10:56;;;;;;;9.63;4.93;;;;;;;28.89;35.83;100023.53;4467445;32;33302;-63
2022/05/12 10:13:46;;;;;;;10.23;5.43;;;;;;;29.28;34.51;100030.50;4451099;32;33683;-63
2022/05/12 10:16:16;;;;;;;10.65;5.82;;;;;;;29.78;34.33;100025.47;4441387;32;34755;-63
2022/05/12 10:18:49;;;;;;;8.95;5.18;;;;;;;29.87;34.66;100008.31;4455400;32;34397;-63
2022/05/12 10:21:20;;;;;;;11.82;5.28;;;;;;;29.84;35.80;100006.59;4450987;32;32544;-63
2022/05/12 10:24:13;;;;;;;12.48;5.40;;;;;;;30.26;34.55;100011.47;4467471;32;33916;-63
2022/05/12 10:26:56;;;;;;;13.68;5.70;;;;;;;29.60;34.48;100008.22;4465015;32;33841;-64
2022/05/12 10:30:05;;;;;;;9.15;5.25;;;;;;;30.54;33.93;100002.59;4456153;32;33970;-63
2022/05/12 10:33:05;;;;;;;10.38;4.95;;;;;;;29.96;33.58;100002.66;4416156;32;33273;-63
2022/05/12 10:36:01;;;;;;;9.10;4.93;;;;;;;29.40;33.32;100006.16;4447980;32;34454;-63
2022/05/12 10:38:34;;;;;;;8.98;5.05;;;;;;;30.78;32.55;99999.03;4456880;32;32259;-64
2022/05/12 10:41:16;;;;;;;13.93;4.80;;;;;;;30.65;33.09;99995.03;4469460;32;34686;-63
2022/05/12 10:44:13;;;;;;;12.68;5.20;;;;;;;31.12;32.20;100000.53;4446843;32;32908;-63
2022/05/12 10:46:59;;;;;;;9.48;5.18;;;;;;;30.60;33.17;99994.34;4455483;32;34684;-63
2022/05/12 10:49:35;;;;;;;7.87;5.25;;;;;;;30.58;33.21;100007.78;4478380;32;33572;-63
2022/05/12 10:52:15;;;;;;;10.85;5.43;;;;;;;30.47;32.73;100003.72;4465702;32;33857;-63
2022/05/12 10:54:46;;;;;;;8.20;5.28;;;;;;;30.69;32.61;99998.50;4449634;32;33684;-63
2022/05/12 10:57:19;;;;;;;7.07;4.70;;;;;;;31.08;32.04;100001.59;4463686;32;33837;-63
2022/05/12 10:59:55;;;;;;;9.27;4.97;;;;;;;30.96;32.49;100002.00;4464705;32;33843;-63
2022/05/12 11:02:35;;;;;;;6.95;5.00;;;;;;;31.30;31.46;99995.44;4476710;32;33757;-63
2022/05/12 11:05:21;;;;;;;9.68;5.15;;;;;;;30.97;32.69;99985.03;4462043;32;33236;-63
2022/05/12 11:07:54;;;;;;;8.63;4.85;;;;;;;30.45;32.39;99984.19;4473790;32;34046;-63
2022/05/12 11:10:44;;;;;;;10.13;5.00;;;;;;;30.94;32.71;99983.34;4446056;32;33742;-63
2022/05/12 11:13:24;;;;;;;7.47;4.97;;;;;;;31.05;31.63;99979.41;4452522;32;34725;-63
2022/05/12 11:16:05;;;;;;;8.93;4.60;;;;;;;31.63;33.81;99971.84;4448977;32;33737;-63
2022/05/12 11:18:53;;;;;;;6.55;4.60;;;;;;;31.41;31.71;99971.81;4453328;32;33827;-64
2022/05/12 11:21:25;;;;;;;6.30;4.50;;;;;;;30.92;31.48;99962.94;4463905;32;33897;-63
2022/05/12 11:24:10;;;;;;;8.82;4.50;;;;;;;31.06;31.10;99963.31;4440509;32;33797;-63
2022/05/12 11:26:40;;;;;;;7.97;4.43;;;;;;;30.93;30.19;99964.69;4466621;32;34193;-63
2022/05/12 11:32:23;;;;;;;6.32;4.00;;;;;;;31.40;28.69;99963.81;4468925;32;33802;-64
2022/05/12 11:34:54;;;;;;;8.15;4.15;;;;;;;31.27;29.37;99952.72;4453341;32;33678;-64
2022/05/12 11:37:26;;;;;;;7.45;4.22;;;;;;;31.07;29.89;99949.00;4477551;32;33427;-63
2022/05/12 11:39:56;;;;;;;5.07;3.65;;;;;;;32.14;28.33;99951.06;4470787;32;33804;-64
2022/05/12 11:42:27;;;;;;;9.73;4.00;;;;;;;32.60;26.85;99943.75;4475731;32;34767;-63
2022/05/12 11:45:05;;;;;;;9.20;4.20;;;;;;;32.69;27.34;99943.34;4469035;32;34000;-63
2022/05/12 11:47:43;;;;;;;5.18;3.47;;;;;;;31.57;28.25;99949.81;4478360;32;33331;-64
2022/05/12 11:50:31;;;;;;;8.23;3.90;;;;;;;31.74;27.00;99952.69;4457525;32;34632;-64
2022/05/12 11:53:21;;;;;;;6.28;3.97;;;;;;;31.74;28.04;99947.34;4462088;32;34623;-64
2022/05/12 11:56:04;;;;;;;7.05;4.12;;;;;;;32.06;28.03;99938.00;4464230;32;33893;-63
2022/05/12 11:58:40;;;;;;;6.25;4.20;;;;;;;31.74;28.80;99944.66;4470641;32;34047;-63
2022/05/12 12:01:10;;;;;;;5.53;3.30;;;;;;;31.63;28.18;99938.88;4463269;32;33871;-64
2022/05/12 12:03:52;;;;;;;9.00;3.40;;;;;;;31.81;26.54;99935.44;4466916;32;33905;-63